sensor_id;sensor_type;location;lat;lon;timestamp;P1;durP1;ratioP1;P2;durP2;ratioP2
10719;SDS011;5411;58.386;15.560;2023-06-26T00:02:08;5.90;;;4.80;;
10719;SDS011;5411;58.386;15.560;2023-06-26T00:04:37;7.40;;;5.43;;
10719;SDS011;5411;58.386;15.560;2023-06-26T00:07:05;5.53;;;5.03;;
10719;SDS011;5411;58.386;15.560;2023-06-26T00:09:35;6.07;;;4.73;;
10719;SDS011;5411;58.386;15.560;2023-06-26T00:12:04;5.77;;;5.27;;
10719;SDS011;5411;58.386;15.560;2023-06-26T00:14:34;5.97;;;5.33;;
10719;SDS011;5411;58.386;15.560;2023-06-26T00:17:03;5.63;;;5.03;;
10719;SDS011;5411;58.386;15.560;2023-06-26T00:19:34;5.43;;;4.93;;
10719;SDS011;5411;58.386;15.560;2023-06-26T00:22:03;6.63;;;5.13;;
10719;SDS011;5411;58.386;15.560;2023-06-26T00:24:31;5.80;;;4.87;;
10719;SDS011;5411;58.386;15.560;2023-06-26T00:27:00;6.60;;;5.77;;
10719;SDS011;5411;58.386;15.560;2023-06-26T00:29:28;6.10;;;5.07;;
10719;SDS011;5411;58.386;15.560;2023-06-26T00:31:58;5.43;;;4.90;;
10719;SDS011;5411;58.386;15.560;2023-06-26T00:34:27;7.03;;;5.30;;
10719;SDS011;5411;58.386;15.560;2023-06-26T00:36:55;7.03;;;5.00;;
10719;SDS011;5411;58.386;15.560;2023-06-26T00:39:24;6.37;;;4.87;;
10719;SDS011;5411;58.386;15.560;2023-06-26T00:41:54;6.90;;;5.40;;
10719;SDS011;5411;58.386;15.560;2023-06-26T00:44:26;5.93;;;5.33;;
10719;SDS011;5411;58.386;15.560;2023-06-26T00:46:55;5.83;;;5.30;;
10719;SDS011;5411;58.386;15.560;2023-06-26T00:49:27;5.33;;;4.83;;
10719;SDS011;5411;58.386;15.560;2023-06-26T00:51:59;5.97;;;5.10;;
10719;SDS011;5411;58.386;15.560;2023-06-26T00:54:31;6.50;;;5.37;;
10719;SDS011;5411;58.386;15.560;2023-06-26T00:56:59;7.23;;;5.40;;
10719;SDS011;5411;58.386;15.560;2023-06-26T00:59:29;5.57;;;5.07;;
10719;SDS011;5411;58.386;15.560;2023-06-26T01:01:58;5.93;;;5.20;;
10719;SDS011;5411;58.386;15.560;2023-06-26T01:04:28;6.13;;;5.30;;
10719;SDS011;5411;58.386;15.560;2023-06-26T01:07:06;5.10;;;4.70;;
10719;SDS011;5411;58.386;15.560;2023-06-26T01:09:35;6.97;;;5.30;;
10719;SDS011;5411;58.386;15.560;2023-06-26T01:12:03;5.53;;;5.00;;
10719;SDS011;5411;58.386;15.560;2023-06-26T01:14:33;7.37;;;5.00;;
10719;SDS011;5411;58.386;15.560;2023-06-26T01:17:06;6.47;;;5.30;;
10719;SDS011;5411;58.386;15.560;2023-06-26T01:19:40;5.20;;;4.80;;
10719;SDS011;5411;58.386;15.560;2023-06-26T01:22:13;6.27;;;5.20;;
10719;SDS011;5411;58.386;15.560;2023-06-26T01:24:53;7.40;;;5.70;;
10719;SDS011;5411;58.386;15.560;2023-06-26T01:27:40;5.67;;;4.87;;
10719;SDS011;5411;58.386;15.560;2023-06-26T01:30:14;5.87;;;5.27;;
10719;SDS011;5411;58.386;15.560;2023-06-26T01:32:44;5.87;;;5.27;;
10719;SDS011;5411;58.386;15.560;2023-06-26T01:35:18;5.80;;;4.70;;
10719;SDS011;5411;58.386;15.560;2023-06-26T01:37:47;5.73;;;5.20;;
10719;SDS011;5411;58.386;15.560;2023-06-26T01:40:17;5.53;;;5.03;;
10719;SDS011;5411;58.386;15.560;2023-06-26T01:42:49;8.23;;;5.47;;
10719;SDS011;5411;58.386;15.560;2023-06-26T01:45:24;7.90;;;5.80;;
10719;SDS011;5411;58.386;15.560;2023-06-26T01:47:59;8.73;;;4.87;;
10719;SDS011;5411;58.386;15.560;2023-06-26T01:50:30;6.23;;;5.33;;
10719;SDS011;5411;58.386;15.560;2023-06-26T01:53:09;8.33;;;5.87;;
10719;SDS011;5411;58.386;15.560;2023-06-26T01:55:45;5.70;;;5.13;;
10719;SDS011;5411;58.386;15.560;2023-06-26T01:58:20;6.20;;;5.20;;
10719;SDS011;5411;58.386;15.560;2023-06-26T02:00:57;7.27;;;6.17;;
10719;SDS011;5411;58.386;15.560;2023-06-26T02:03:28;7.47;;;5.50;;
10719;SDS011;5411;58.386;15.560;2023-06-26T02:05:57;6.83;;;5.93;;
10719;SDS011;5411;58.386;15.560;2023-06-26T02:08:26;6.17;;;5.67;;
10719;SDS011;5411;58.386;15.560;2023-06-26T02:10:54;5.87;;;5.20;;
10719;SDS011;5411;58.386;15.560;2023-06-26T02:13:25;7.03;;;5.57;;
10719;SDS011;5411;58.386;15.560;2023-06-26T02:16:00;6.73;;;5.57;;
10719;SDS011;5411;58.386;15.560;2023-06-26T02:18:30;6.07;;;5.47;;
10719;SDS011;5411;58.386;15.560;2023-06-26T02:20:59;6.63;;;5.77;;
10719;SDS011;5411;58.386;15.560;2023-06-26T02:23:28;6.20;;;5.60;;
10719;SDS011;5411;58.386;15.560;2023-06-26T02:26:02;5.80;;;5.30;;
10719;SDS011;5411;58.386;15.560;2023-06-26T02:28:35;6.13;;;5.23;;
10719;SDS011;5411;58.386;15.560;2023-06-26T02:31:05;5.97;;;5.37;;
10719;SDS011;5411;58.386;15.560;2023-06-26T02:33:36;5.93;;;5.37;;
10719;SDS011;5411;58.386;15.560;2023-06-26T02:36:07;6.70;;;6.10;;
10719;SDS011;5411;58.386;15.560;2023-06-26T02:38:42;6.10;;;5.30;;
10719;SDS011;5411;58.386;15.560;2023-06-26T02:41:16;6.63;;;5.67;;
10719;SDS011;5411;58.386;15.560;2023-06-26T02:43:46;6.40;;;5.80;;
10719;SDS011;5411;58.386;15.560;2023-06-26T02:46:14;5.77;;;5.13;;
10719;SDS011;5411;58.386;15.560;2023-06-26T02:48:44;6.07;;;5.47;;
10719;SDS011;5411;58.386;15.560;2023-06-26T02:51:16;6.40;;;5.73;;
10719;SDS011;5411;58.386;15.560;2023-06-26T02:53:48;7.80;;;6.10;;
10719;SDS011;5411;58.386;15.560;2023-06-26T02:56:16;6.10;;;5.60;;
10719;SDS011;5411;58.386;15.560;2023-06-26T02:58:47;5.93;;;5.20;;
10719;SDS011;5411;58.386;15.560;2023-06-26T03:01:15;5.83;;;4.93;;
10719;SDS011;5411;58.386;15.560;2023-06-26T03:03:44;6.03;;;5.30;;
10719;SDS011;5411;58.386;15.560;2023-06-26T03:06:14;6.10;;;5.50;;
10719;SDS011;5411;58.386;15.560;2023-06-26T03:08:42;5.83;;;5.33;;
10719;SDS011;5411;58.386;15.560;2023-06-26T03:11:11;5.70;;;5.20;;
10719;SDS011;5411;58.386;15.560;2023-06-26T03:13:39;5.80;;;5.30;;
10719;SDS011;5411;58.386;15.560;2023-06-26T03:16:10;5.80;;;5.30;;
10719;SDS011;5411;58.386;15.560;2023-06-26T03:18:38;6.33;;;5.37;;
10719;SDS011;5411;58.386;15.560;2023-06-26T03:21:09;5.50;;;5.00;;
10719;SDS011;5411;58.386;15.560;2023-06-26T03:23:39;5.43;;;4.87;;
10719;SDS011;5411;58.386;15.560;2023-06-26T03:26:09;7.00;;;5.30;;
10719;SDS011;5411;58.386;15.560;2023-06-26T03:28:41;5.03;;;4.63;;
10719;SDS011;5411;58.386;15.560;2023-06-26T03:31:11;5.77;;;5.27;;
10719;SDS011;5411;58.386;15.560;2023-06-26T03:33:41;6.03;;;5.50;;
10719;SDS011;5411;58.386;15.560;2023-06-26T03:36:10;6.47;;;5.30;;
10719;SDS011;5411;58.386;15.560;2023-06-26T03:38:39;7.00;;;5.07;;
10719;SDS011;5411;58.386;15.560;2023-06-26T03:41:08;5.33;;;4.93;;
10719;SDS011;5411;58.386;15.560;2023-06-26T03:43:49;5.97;;;4.37;;
10719;SDS011;5411;58.386;15.560;2023-06-26T03:46:21;7.03;;;4.80;;
10719;SDS011;5411;58.386;15.560;2023-06-26T03:48:52;7.40;;;5.20;;
10719;SDS011;5411;58.386;15.560;2023-06-26T03:51:20;5.37;;;4.87;;
10719;SDS011;5411;58.386;15.560;2023-06-26T03:53:49;6.33;;;5.20;;
10719;SDS011;5411;58.386;15.560;2023-06-26T03:56:22;6.67;;;5.30;;
10719;SDS011;5411;58.386;15.560;2023-06-26T03:58:50;5.83;;;5.33;;
10719;SDS011;5411;58.386;15.560;2023-06-26T04:01:21;5.60;;;5.10;;
10719;SDS011;5411;58.386;15.560;2023-06-26T04:03:53;8.27;;;5.90;;
10719;SDS011;5411;58.386;15.560;2023-06-26T04:06:24;5.97;;;5.47;;
10719;SDS011;5411;58.386;15.560;2023-06-26T04:08:57;6.47;;;5.50;;
10719;SDS011;5411;58.386;15.560;2023-06-26T04:11:26;6.13;;;5.50;;
10719;SDS011;5411;58.386;15.560;2023-06-26T04:13:56;6.63;;;6.03;;
10719;SDS011;5411;58.386;15.560;2023-06-26T04:16:28;5.90;;;5.40;;
10719;SDS011;5411;58.386;15.560;2023-06-26T04:18:57;7.20;;;6.10;;
10719;SDS011;5411;58.386;15.560;2023-06-26T04:21:26;6.07;;;5.57;;
10719;SDS011;5411;58.386;15.560;2023-06-26T04:23:54;7.13;;;5.70;;
10719;SDS011;5411;58.386;15.560;2023-06-26T04:26:25;9.83;;;6.00;;
10719;SDS011;5411;58.386;15.560;2023-06-26T04:28:54;5.90;;;5.30;;
10719;SDS011;5411;58.386;15.560;2023-06-26T04:31:23;6.47;;;5.83;;
10719;SDS011;5411;58.386;15.560;2023-06-26T04:33:53;6.30;;;5.60;;
10719;SDS011;5411;58.386;15.560;2023-06-26T04:36:22;8.67;;;6.87;;
10719;SDS011;5411;58.386;15.560;2023-06-26T04:38:58;8.57;;;5.93;;
10719;SDS011;5411;58.386;15.560;2023-06-26T04:41:31;7.20;;;5.80;;
10719;SDS011;5411;58.386;15.560;2023-06-26T04:44:02;7.20;;;6.10;;
10719;SDS011;5411;58.386;15.560;2023-06-26T04:46:33;7.13;;;5.93;;
10719;SDS011;5411;58.386;15.560;2023-06-26T04:49:07;7.90;;;6.33;;
10719;SDS011;5411;58.386;15.560;2023-06-26T04:51:38;7.93;;;6.33;;
10719;SDS011;5411;58.386;15.560;2023-06-26T04:54:10;6.20;;;5.60;;
10719;SDS011;5411;58.386;15.560;2023-06-26T04:56:39;6.63;;;5.93;;
10719;SDS011;5411;58.386;15.560;2023-06-26T04:59:07;6.27;;;5.77;;
10719;SDS011;5411;58.386;15.560;2023-06-26T05:01:40;7.77;;;5.90;;
10719;SDS011;5411;58.386;15.560;2023-06-26T05:04:23;6.27;;;5.67;;
10719;SDS011;5411;58.386;15.560;2023-06-26T05:06:51;7.80;;;5.83;;
10719;SDS011;5411;58.386;15.560;2023-06-26T05:09:20;6.37;;;5.73;;
10719;SDS011;5411;58.386;15.560;2023-06-26T05:11:53;6.60;;;6.00;;
10719;SDS011;5411;58.386;15.560;2023-06-26T05:14:38;6.93;;;5.87;;
10719;SDS011;5411;58.386;15.560;2023-06-26T05:17:09;7.73;;;5.90;;
10719;SDS011;5411;58.386;15.560;2023-06-26T05:19:39;6.93;;;6.23;;
10719;SDS011;5411;58.386;15.560;2023-06-26T05:22:18;6.90;;;6.30;;
10719;SDS011;5411;58.386;15.560;2023-06-26T05:24:48;6.93;;;5.90;;
10719;SDS011;5411;58.386;15.560;2023-06-26T05:27:19;6.37;;;5.70;;
10719;SDS011;5411;58.386;15.560;2023-06-26T05:29:48;8.37;;;6.30;;
10719;SDS011;5411;58.386;15.560;2023-06-26T05:32:20;6.83;;;6.23;;
10719;SDS011;5411;58.386;15.560;2023-06-26T05:34:54;8.00;;;6.10;;
10719;SDS011;5411;58.386;15.560;2023-06-26T05:37:29;9.57;;;6.37;;
10719;SDS011;5411;58.386;15.560;2023-06-26T05:40:01;7.13;;;6.10;;
10719;SDS011;5411;58.386;15.560;2023-06-26T05:42:33;6.97;;;5.97;;
10719;SDS011;5411;58.386;15.560;2023-06-26T05:45:04;7.57;;;6.00;;
10719;SDS011;5411;58.386;15.560;2023-06-26T05:47:33;7.73;;;6.03;;
10719;SDS011;5411;58.386;15.560;2023-06-26T05:50:06;8.63;;;6.57;;
10719;SDS011;5411;58.386;15.560;2023-06-26T05:52:38;6.47;;;5.93;;
10719;SDS011;5411;58.386;15.560;2023-06-26T05:55:09;6.50;;;5.53;;
10719;SDS011;5411;58.386;15.560;2023-06-26T05:57:39;6.33;;;5.73;;
10719;SDS011;5411;58.386;15.560;2023-06-26T06:00:13;6.57;;;5.97;;
10719;SDS011;5411;58.386;15.560;2023-06-26T06:02:42;6.30;;;5.70;;
10719;SDS011;5411;58.386;15.560;2023-06-26T06:05:12;6.97;;;6.00;;
10719;SDS011;5411;58.386;15.560;2023-06-26T06:07:46;6.20;;;5.50;;
10719;SDS011;5411;58.386;15.560;2023-06-26T06:10:19;6.90;;;5.87;;
10719;SDS011;5411;58.386;15.560;2023-06-26T06:12:48;6.00;;;5.40;;
10719;SDS011;5411;58.386;15.560;2023-06-26T06:15:17;7.00;;;5.70;;
10719;SDS011;5411;58.386;15.560;2023-06-26T06:17:47;7.10;;;6.40;;
10719;SDS011;5411;58.386;15.560;2023-06-26T06:20:17;6.30;;;5.60;;
10719;SDS011;5411;58.386;15.560;2023-06-26T06:22:47;6.97;;;5.80;;
10719;SDS011;5411;58.386;15.560;2023-06-26T06:25:16;6.53;;;5.93;;
10719;SDS011;5411;58.386;15.560;2023-06-26T06:27:45;6.67;;;6.07;;
10719;SDS011;5411;58.386;15.560;2023-06-26T06:30:13;5.77;;;5.20;;
10719;SDS011;5411;58.386;15.560;2023-06-26T06:32:50;6.13;;;5.53;;
10719;SDS011;5411;58.386;15.560;2023-06-26T06:35:20;11.57;;;6.80;;
10719;SDS011;5411;58.386;15.560;2023-06-26T06:37:54;6.40;;;5.80;;
10719;SDS011;5411;58.386;15.560;2023-06-26T06:40:23;7.53;;;5.77;;
10719;SDS011;5411;58.386;15.560;2023-06-26T06:42:56;6.40;;;5.80;;
10719;SDS011;5411;58.386;15.560;2023-06-26T06:45:24;6.10;;;5.60;;
10719;SDS011;5411;58.386;15.560;2023-06-26T06:47:54;6.23;;;5.57;;
10719;SDS011;5411;58.386;15.560;2023-06-26T06:50:27;6.07;;;5.57;;
10719;SDS011;5411;58.386;15.560;2023-06-26T06:52:57;6.63;;;5.67;;
10719;SDS011;5411;58.386;15.560;2023-06-26T06:55:25;5.90;;;5.27;;
10719;SDS011;5411;58.386;15.560;2023-06-26T06:57:53;6.80;;;5.17;;
10719;SDS011;5411;58.386;15.560;2023-06-26T07:00:25;6.17;;;5.63;;
10719;SDS011;5411;58.386;15.560;2023-06-26T07:02:54;6.07;;;5.57;;
10719;SDS011;5411;58.386;15.560;2023-06-26T07:05:25;6.73;;;6.13;;
10719;SDS011;5411;58.386;15.560;2023-06-26T07:07:54;6.50;;;5.90;;
10719;SDS011;5411;58.386;15.560;2023-06-26T07:10:25;7.17;;;5.70;;
10719;SDS011;5411;58.386;15.560;2023-06-26T07:13:16;7.03;;;6.37;;
10719;SDS011;5411;58.386;15.560;2023-06-26T07:15:46;7.47;;;5.63;;
10719;SDS011;5411;58.386;15.560;2023-06-26T07:18:19;10.87;;;7.10;;
10719;SDS011;5411;58.386;15.560;2023-06-26T07:20:58;6.83;;;6.03;;
10719;SDS011;5411;58.386;15.560;2023-06-26T07:23:28;7.17;;;5.90;;
10719;SDS011;5411;58.386;15.560;2023-06-26T07:25:57;6.67;;;6.00;;
10719;SDS011;5411;58.386;15.560;2023-06-26T07:28:25;6.40;;;5.80;;
10719;SDS011;5411;58.386;15.560;2023-06-26T07:30:54;6.77;;;6.17;;
10719;SDS011;5411;58.386;15.560;2023-06-26T07:33:24;7.03;;;6.43;;
10719;SDS011;5411;58.386;15.560;2023-06-26T07:35:54;6.63;;;6.00;;
10719;SDS011;5411;58.386;15.560;2023-06-26T07:38:22;5.83;;;5.33;;
10719;SDS011;5411;58.386;15.560;2023-06-26T07:40:52;6.77;;;6.07;;
10719;SDS011;5411;58.386;15.560;2023-06-26T07:43:21;5.90;;;5.30;;
10719;SDS011;5411;58.386;15.560;2023-06-26T07:45:50;5.97;;;5.47;;
10719;SDS011;5411;58.386;15.560;2023-06-26T07:48:20;6.10;;;5.60;;
10719;SDS011;5411;58.386;15.560;2023-06-26T07:50:49;5.93;;;5.33;;
10719;SDS011;5411;58.386;15.560;2023-06-26T07:53:19;5.93;;;5.40;;
10719;SDS011;5411;58.386;15.560;2023-06-26T07:55:47;5.90;;;5.40;;
10719;SDS011;5411;58.386;15.560;2023-06-26T07:58:16;5.33;;;4.80;;
10719;SDS011;5411;58.386;15.560;2023-06-26T08:00:45;5.50;;;5.10;;
10719;SDS011;5411;58.386;15.560;2023-06-26T08:03:18;5.50;;;4.93;;
10719;SDS011;5411;58.386;15.560;2023-06-26T08:06:00;6.00;;;5.40;;
10719;SDS011;5411;58.386;15.560;2023-06-26T08:08:31;5.80;;;5.27;;
10719;SDS011;5411;58.386;15.560;2023-06-26T08:11:01;5.80;;;5.33;;
10719;SDS011;5411;58.386;15.560;2023-06-26T08:13:32;5.87;;;5.27;;
10719;SDS011;5411;58.386;15.560;2023-06-26T08:16:01;5.77;;;5.20;;
10719;SDS011;5411;58.386;15.560;2023-06-26T08:18:29;5.87;;;5.27;;
10719;SDS011;5411;58.386;15.560;2023-06-26T08:20:58;5.70;;;5.20;;
10719;SDS011;5411;58.386;15.560;2023-06-26T08:23:27;5.60;;;5.07;;
10719;SDS011;5411;58.386;15.560;2023-06-26T08:25:57;5.47;;;4.97;;
10719;SDS011;5411;58.386;15.560;2023-06-26T08:28:27;5.60;;;5.00;;
10719;SDS011;5411;58.386;15.560;2023-06-26T08:30:56;5.83;;;5.23;;
10719;SDS011;5411;58.386;15.560;2023-06-26T08:33:24;5.33;;;4.83;;
10719;SDS011;5411;58.386;15.560;2023-06-26T08:35:53;5.73;;;5.20;;
10719;SDS011;5411;58.386;15.560;2023-06-26T08:38:21;5.10;;;4.70;;
10719;SDS011;5411;58.386;15.560;2023-06-26T08:40:50;5.30;;;4.77;;
10719;SDS011;5411;58.386;15.560;2023-06-26T08:43:20;5.10;;;4.60;;
10719;SDS011;5411;58.386;15.560;2023-06-26T08:45:49;5.30;;;4.90;;
10719;SDS011;5411;58.386;15.560;2023-06-26T08:48:21;5.07;;;4.57;;
10719;SDS011;5411;58.386;15.560;2023-06-26T08:50:50;5.50;;;5.00;;
10719;SDS011;5411;58.386;15.560;2023-06-26T08:53:23;5.50;;;5.10;;
10719;SDS011;5411;58.386;15.560;2023-06-26T08:56:03;5.30;;;4.80;;
10719;SDS011;5411;58.386;15.560;2023-06-26T08:58:36;5.27;;;4.77;;
10719;SDS011;5411;58.386;15.560;2023-06-26T09:01:11;5.13;;;4.73;;
10719;SDS011;5411;58.386;15.560;2023-06-26T09:03:40;4.30;;;3.90;;
10719;SDS011;5411;58.386;15.560;2023-06-26T09:06:09;5.00;;;4.60;;
10719;SDS011;5411;58.386;15.560;2023-06-26T09:08:41;5.07;;;4.67;;
10719;SDS011;5411;58.386;15.560;2023-06-26T09:11:10;5.30;;;4.80;;
10719;SDS011;5411;58.386;15.560;2023-06-26T09:13:40;5.10;;;4.67;;
10719;SDS011;5411;58.386;15.560;2023-06-26T09:16:09;4.93;;;4.53;;
10719;SDS011;5411;58.386;15.560;2023-06-26T09:18:40;4.53;;;4.13;;
10719;SDS011;5411;58.386;15.560;2023-06-26T09:21:09;4.70;;;4.30;;
10719;SDS011;5411;58.386;15.560;2023-06-26T09:23:42;5.83;;;4.17;;
10719;SDS011;5411;58.386;15.560;2023-06-26T09:26:11;4.20;;;3.90;;
10719;SDS011;5411;58.386;15.560;2023-06-26T09:28:44;4.30;;;3.90;;
10719;SDS011;5411;58.386;15.560;2023-06-26T09:31:13;4.40;;;4.00;;
10719;SDS011;5411;58.386;15.560;2023-06-26T09:34:00;4.77;;;4.37;;
10719;SDS011;5411;58.386;15.560;2023-06-26T09:36:30;4.23;;;3.93;;
10719;SDS011;5411;58.386;15.560;2023-06-26T09:39:09;4.80;;;4.40;;
10719;SDS011;5411;58.386;15.560;2023-06-26T09:41:41;4.77;;;4.37;;
10719;SDS011;5411;58.386;15.560;2023-06-26T09:44:13;3.87;;;3.57;;
10719;SDS011;5411;58.386;15.560;2023-06-26T09:46:44;4.13;;;3.83;;
10719;SDS011;5411;58.386;15.560;2023-06-26T09:49:13;3.90;;;3.60;;
10719;SDS011;5411;58.386;15.560;2023-06-26T09:51:42;3.60;;;3.30;;
10719;SDS011;5411;58.386;15.560;2023-06-26T09:54:11;6.53;;;4.07;;
10719;SDS011;5411;58.386;15.560;2023-06-26T09:56:40;4.97;;;4.37;;
10719;SDS011;5411;58.386;15.560;2023-06-26T09:59:08;4.13;;;3.77;;
10719;SDS011;5411;58.386;15.560;2023-06-26T10:01:45;4.30;;;3.90;;
10719;SDS011;5411;58.386;15.560;2023-06-26T10:04:19;4.77;;;4.37;;
10719;SDS011;5411;58.386;15.560;2023-06-26T10:06:49;4.27;;;3.97;;
10719;SDS011;5411;58.386;15.560;2023-06-26T10:09:19;4.40;;;4.10;;
10719;SDS011;5411;58.386;15.560;2023-06-26T10:11:57;4.30;;;4.00;;
10719;SDS011;5411;58.386;15.560;2023-06-26T10:14:34;4.20;;;3.90;;
10719;SDS011;5411;58.386;15.560;2023-06-26T10:17:06;4.73;;;4.33;;
10719;SDS011;5411;58.386;15.560;2023-06-26T10:19:37;4.70;;;4.30;;
10719;SDS011;5411;58.386;15.560;2023-06-26T10:22:07;4.23;;;3.83;;
10719;SDS011;5411;58.386;15.560;2023-06-26T10:24:37;4.37;;;4.07;;
10719;SDS011;5411;58.386;15.560;2023-06-26T10:27:10;4.23;;;3.93;;
10719;SDS011;5411;58.386;15.560;2023-06-26T10:29:43;4.30;;;4.00;;
10719;SDS011;5411;58.386;15.560;2023-06-26T10:32:16;4.50;;;4.10;;
10719;SDS011;5411;58.386;15.560;2023-06-26T10:34:47;4.37;;;3.97;;
10719;SDS011;5411;58.386;15.560;2023-06-26T10:40:10;3.97;;;3.67;;
10719;SDS011;5411;58.386;15.560;2023-06-26T10:42:45;4.37;;;3.97;;
10719;SDS011;5411;58.386;15.560;2023-06-26T10:45:14;4.30;;;3.90;;
10719;SDS011;5411;58.386;15.560;2023-06-26T10:47:47;4.43;;;3.83;;
10719;SDS011;5411;58.386;15.560;2023-06-26T10:50:20;3.70;;;3.40;;
10719;SDS011;5411;58.386;15.560;2023-06-26T10:53:09;4.23;;;3.93;;
10719;SDS011;5411;58.386;15.560;2023-06-26T10:55:41;4.40;;;4.00;;
10719;SDS011;5411;58.386;15.560;2023-06-26T11:01:14;4.10;;;3.80;;
10719;SDS011;5411;58.386;15.560;2023-06-26T11:04:04;4.03;;;3.73;;
10719;SDS011;5411;58.386;15.560;2023-06-26T11:06:35;3.50;;;3.27;;
10719;SDS011;5411;58.386;15.560;2023-06-26T11:09:09;3.83;;;3.53;;
10719;SDS011;5411;58.386;15.560;2023-06-26T11:11:57;4.30;;;4.00;;
10719;SDS011;5411;58.386;15.560;2023-06-26T11:14:33;4.47;;;4.13;;
10719;SDS011;5411;58.386;15.560;2023-06-26T11:17:04;4.97;;;4.50;;
10719;SDS011;5411;58.386;15.560;2023-06-26T11:19:41;4.70;;;4.30;;
10719;SDS011;5411;58.386;15.560;2023-06-26T11:22:11;5.13;;;4.50;;
10719;SDS011;5411;58.386;15.560;2023-06-26T11:24:48;4.97;;;4.57;;
10719;SDS011;5411;58.386;15.560;2023-06-26T11:27:22;5.33;;;4.83;;
10719;SDS011;5411;58.386;15.560;2023-06-26T11:29:50;4.90;;;4.50;;
10719;SDS011;5411;58.386;15.560;2023-06-26T11:32:19;4.63;;;4.23;;
10719;SDS011;5411;58.386;15.560;2023-06-26T11:34:49;5.03;;;4.63;;
10719;SDS011;5411;58.386;15.560;2023-06-26T11:37:17;5.17;;;4.67;;
10719;SDS011;5411;58.386;15.560;2023-06-26T11:39:52;4.90;;;4.40;;
10719;SDS011;5411;58.386;15.560;2023-06-26T11:42:21;5.17;;;4.67;;
10719;SDS011;5411;58.386;15.560;2023-06-26T11:44:52;4.70;;;4.30;;
10719;SDS011;5411;58.386;15.560;2023-06-26T11:47:21;5.30;;;4.30;;
10719;SDS011;5411;58.386;15.560;2023-06-26T11:49:51;5.23;;;4.40;;
10719;SDS011;5411;58.386;15.560;2023-06-26T11:52:21;4.77;;;4.37;;
10719;SDS011;5411;58.386;15.560;2023-06-26T11:54:49;6.23;;;4.00;;
10719;SDS011;5411;58.386;15.560;2023-06-26T11:57:18;5.30;;;4.43;;
10719;SDS011;5411;58.386;15.560;2023-06-26T11:59:49;4.50;;;4.10;;
10719;SDS011;5411;58.386;15.560;2023-06-26T12:02:21;4.90;;;4.40;;
10719;SDS011;5411;58.386;15.560;2023-06-26T12:04:50;4.63;;;4.23;;
10719;SDS011;5411;58.386;15.560;2023-06-26T12:07:35;5.03;;;4.57;;
10719;SDS011;5411;58.386;15.560;2023-06-26T12:10:13;4.80;;;4.40;;
10719;SDS011;5411;58.386;15.560;2023-06-26T12:12:42;4.87;;;4.40;;
10719;SDS011;5411;58.386;15.560;2023-06-26T12:15:13;4.57;;;4.17;;
10719;SDS011;5411;58.386;15.560;2023-06-26T12:17:45;4.50;;;4.10;;
10719;SDS011;5411;58.386;15.560;2023-06-26T12:20:18;4.60;;;4.23;;
10719;SDS011;5411;58.386;15.560;2023-06-26T12:22:48;4.70;;;4.30;;
10719;SDS011;5411;58.386;15.560;2023-06-26T12:25:23;5.53;;;4.60;;
10719;SDS011;5411;58.386;15.560;2023-06-26T12:27:52;5.00;;;4.60;;
10719;SDS011;5411;58.386;15.560;2023-06-26T12:30:20;7.07;;;4.70;;
10719;SDS011;5411;58.386;15.560;2023-06-26T12:32:51;4.57;;;4.13;;
10719;SDS011;5411;58.386;15.560;2023-06-26T12:35:21;4.47;;;4.17;;
10719;SDS011;5411;58.386;15.560;2023-06-26T12:37:50;5.00;;;4.50;;
10719;SDS011;5411;58.386;15.560;2023-06-26T12:40:26;4.43;;;4.07;;
10719;SDS011;5411;58.386;15.560;2023-06-26T12:43:02;5.70;;;4.33;;
10719;SDS011;5411;58.386;15.560;2023-06-26T12:45:37;5.47;;;4.70;;
10719;SDS011;5411;58.386;15.560;2023-06-26T12:48:10;4.90;;;4.50;;
10719;SDS011;5411;58.386;15.560;2023-06-26T12:50:44;4.70;;;4.30;;
10719;SDS011;5411;58.386;15.560;2023-06-26T12:53:17;5.07;;;4.50;;
10719;SDS011;5411;58.386;15.560;2023-06-26T12:55:46;4.70;;;4.30;;
10719;SDS011;5411;58.386;15.560;2023-06-26T12:58:20;4.97;;;4.57;;
10719;SDS011;5411;58.386;15.560;2023-06-26T13:00:49;6.03;;;5.43;;
10719;SDS011;5411;58.386;15.560;2023-06-26T13:03:20;4.87;;;4.43;;
10719;SDS011;5411;58.386;15.560;2023-06-26T13:05:50;5.20;;;4.77;;
10719;SDS011;5411;58.386;15.560;2023-06-26T13:08:18;5.30;;;4.80;;
10719;SDS011;5411;58.386;15.560;2023-06-26T13:10:48;4.87;;;4.47;;
10719;SDS011;5411;58.386;15.560;2023-06-26T13:13:19;5.37;;;4.63;;
10719;SDS011;5411;58.386;15.560;2023-06-26T13:15:48;5.23;;;4.83;;
10719;SDS011;5411;58.386;15.560;2023-06-26T13:18:17;5.13;;;4.73;;
10719;SDS011;5411;58.386;15.560;2023-06-26T13:20:47;7.23;;;5.07;;
10719;SDS011;5411;58.386;15.560;2023-06-26T13:23:17;4.90;;;4.50;;
10719;SDS011;5411;58.386;15.560;2023-06-26T13:25:46;5.30;;;4.80;;
10719;SDS011;5411;58.386;15.560;2023-06-26T13:28:14;4.83;;;4.30;;
10719;SDS011;5411;58.386;15.560;2023-06-26T13:30:47;5.10;;;4.60;;
10719;SDS011;5411;58.386;15.560;2023-06-26T13:33:16;5.30;;;4.80;;
10719;SDS011;5411;58.386;15.560;2023-06-26T13:35:45;5.10;;;4.70;;
10719;SDS011;5411;58.386;15.560;2023-06-26T13:38:13;5.10;;;4.70;;
10719;SDS011;5411;58.386;15.560;2023-06-26T13:40:45;5.27;;;4.87;;
10719;SDS011;5411;58.386;15.560;2023-06-26T13:43:13;4.47;;;4.17;;
10719;SDS011;5411;58.386;15.560;2023-06-26T13:45:42;4.73;;;4.30;;
10719;SDS011;5411;58.386;15.560;2023-06-26T13:48:13;4.60;;;4.20;;
10719;SDS011;5411;58.386;15.560;2023-06-26T13:50:44;4.77;;;4.23;;
10719;SDS011;5411;58.386;15.560;2023-06-26T13:53:20;4.60;;;4.10;;
10719;SDS011;5411;58.386;15.560;2023-06-26T13:55:56;4.53;;;4.13;;
10719;SDS011;5411;58.386;15.560;2023-06-26T13:58:24;4.57;;;4.17;;
10719;SDS011;5411;58.386;15.560;2023-06-26T14:00:53;4.30;;;3.90;;
10719;SDS011;5411;58.386;15.560;2023-06-26T14:03:23;4.70;;;4.10;;
10719;SDS011;5411;58.386;15.560;2023-06-26T14:05:51;4.50;;;4.10;;
10719;SDS011;5411;58.386;15.560;2023-06-26T14:08:20;3.80;;;3.50;;
10719;SDS011;5411;58.386;15.560;2023-06-26T14:10:48;4.80;;;4.33;;
10719;SDS011;5411;58.386;15.560;2023-06-26T14:13:19;5.57;;;4.03;;
10719;SDS011;5411;58.386;15.560;2023-06-26T14:15:49;3.60;;;3.30;;
10719;SDS011;5411;58.386;15.560;2023-06-26T14:18:20;4.17;;;3.73;;
10719;SDS011;5411;58.386;15.560;2023-06-26T14:20:51;4.20;;;3.80;;
10719;SDS011;5411;58.386;15.560;2023-06-26T14:23:20;3.67;;;3.37;;
10719;SDS011;5411;58.386;15.560;2023-06-26T14:25:48;4.07;;;3.77;;
10719;SDS011;5411;58.386;15.560;2023-06-26T14:28:17;4.00;;;3.70;;
10719;SDS011;5411;58.386;15.560;2023-06-26T14:30:48;3.83;;;3.47;;
10719;SDS011;5411;58.386;15.560;2023-06-26T14:33:19;3.67;;;3.33;;
10719;SDS011;5411;58.386;15.560;2023-06-26T14:35:48;4.40;;;4.00;;
10719;SDS011;5411;58.386;15.560;2023-06-26T14:38:23;4.23;;;3.93;;
10719;SDS011;5411;58.386;15.560;2023-06-26T14:40:51;4.67;;;4.27;;
10719;SDS011;5411;58.386;15.560;2023-06-26T14:43:21;3.90;;;3.53;;
10719;SDS011;5411;58.386;15.560;2023-06-26T14:45:52;3.93;;;3.63;;
10719;SDS011;5411;58.386;15.560;2023-06-26T14:48:23;3.80;;;3.50;;
10719;SDS011;5411;58.386;15.560;2023-06-26T14:50:56;3.83;;;3.53;;
10719;SDS011;5411;58.386;15.560;2023-06-26T14:53:28;4.90;;;3.80;;
10719;SDS011;5411;58.386;15.560;2023-06-26T14:55:56;4.70;;;3.70;;
10719;SDS011;5411;58.386;15.560;2023-06-26T14:58:25;3.80;;;3.50;;
10719;SDS011;5411;58.386;15.560;2023-06-26T15:00:55;5.20;;;4.60;;
10719;SDS011;5411;58.386;15.560;2023-06-26T15:03:26;4.47;;;4.07;;
10719;SDS011;5411;58.386;15.560;2023-06-26T15:05:55;4.20;;;3.90;;
10719;SDS011;5411;58.386;15.560;2023-06-26T15:08:29;4.33;;;3.90;;
10719;SDS011;5411;58.386;15.560;2023-06-26T15:10:57;4.50;;;4.10;;
10719;SDS011;5411;58.386;15.560;2023-06-26T15:13:26;4.00;;;3.63;;
10719;SDS011;5411;58.386;15.560;2023-06-26T15:15:57;5.53;;;3.80;;
10719;SDS011;5411;58.386;15.560;2023-06-26T15:18:26;5.13;;;4.10;;